createdAt,value
2022-09-26T00:02:51.511Z,12.25
2022-09-26T00:05:53.288Z,13.00
2022-09-26T00:09:08.592Z,12.57
2022-09-26T00:12:17.143Z,12.75
2022-09-26T00:15:28.501Z,12.43
2022-09-26T00:18:37.516Z,11.93
2022-09-26T00:21:53.528Z,13.10
2022-09-26T00:24:55.321Z,12.80
2022-09-26T00:28:10.518Z,11.90
2022-09-26T00:31:15.653Z,12.67
2022-09-26T00:34:30.511Z,12.88
2022-09-26T00:37:39.059Z,13.85
2022-09-26T00:40:47.590Z,13.13
2022-09-26T00:44:10.503Z,13.70
2022-09-26T00:47:31.540Z,13.43
2022-09-26T00:50:37.789Z,12.73
2022-09-26T00:53:56.571Z,12.77
2022-09-26T00:57:12.560Z,13.70
2022-09-26T01:00:21.551Z,12.73
2022-09-26T01:03:38.531Z,12.43
2022-09-26T01:06:41.478Z,14.20
2022-09-26T01:09:57.544Z,12.95
2022-09-26T01:13:07.132Z,12.23
2022-09-26T01:16:15.568Z,11.47
2022-09-26T01:19:36.161Z,11.57
2022-09-26T01:23:20.523Z,12.05
2022-09-26T01:26:47.515Z,12.32
2022-09-26T01:30:16.541Z,12.02
2022-09-26T01:33:50.060Z,10.80
2022-09-26T01:37:16.590Z,12.55
2022-09-26T01:40:50.650Z,12.40
2022-09-26T01:44:28.556Z,12.68
2022-09-26T01:47:45.559Z,12.37
2022-09-26T01:51:08.560Z,11.80
2022-09-26T01:54:17.240Z,12.23
2022-09-26T01:57:38.537Z,11.80
2022-09-26T02:00:55.578Z,10.80
2022-09-26T02:04:04.711Z,12.25
2022-09-26T02:07:25.586Z,11.17
2022-09-26T02:10:46.558Z,11.82
2022-09-26T02:14:11.973Z,12.30
2022-09-26T02:17:34.557Z,10.45
2022-09-26T02:20:38.883Z,11.38
2022-09-26T02:23:55.583Z,11.47
2022-09-26T02:27:11.583Z,11.45
2022-09-26T02:30:13.690Z,12.20
2022-09-26T02:33:28.628Z,11.40
2022-09-26T02:36:30.440Z,15.70
2022-09-26T02:39:46.593Z,11.50
2022-09-26T02:43:22.549Z,12.43
2022-09-26T02:47:05.571Z,12.30
2022-09-26T02:50:35.580Z,13.00
2022-09-26T02:54:11.592Z,15.80
2022-09-26T02:57:41.667Z,12.47
2022-09-26T03:00:59.719Z,12.02
2022-09-26T03:04:37.778Z,12.32
2022-09-26T03:07:59.581Z,12.55
2022-09-26T03:11:11.343Z,12.80
2022-09-26T03:14:25.617Z,12.73
2022-09-26T03:17:28.312Z,12.13
2022-09-26T03:20:42.598Z,13.13
2022-09-26T03:23:45.187Z,13.82
2022-09-26T03:27:01.633Z,13.43
2022-09-26T03:30:12.707Z,13.87
2022-09-26T03:33:21.632Z,14.45
2022-09-26T03:36:30.204Z,15.00
2022-09-26T03:39:44.620Z,12.70
2022-09-26T03:42:46.371Z,14.77
2022-09-26T03:46:11.672Z,14.13
2022-09-26T03:49:13.685Z,13.77
2022-09-26T03:52:28.625Z,14.75
2022-09-26T03:55:37.227Z,15.40
2022-09-26T03:58:45.623Z,16.45
2022-09-26T04:02:00.669Z,15.67
2022-09-26T04:05:16.684Z,16.80
2022-09-26T04:08:24.612Z,16.55
2022-09-26T04:11:33.246Z,16.67
2022-09-26T04:14:41.608Z,15.98
2022-09-26T04:17:50.284Z,15.53
2022-09-26T04:21:15.621Z,16.50
2022-09-26T04:24:17.428Z,16.83
2022-09-26T04:27:34.604Z,15.82
2022-09-26T04:30:43.196Z,16.10
2022-09-26T04:33:51.638Z,15.77
2022-09-26T04:37:00.235Z,15.60
2022-09-26T04:40:15.739Z,14.60
2022-09-26T04:43:23.650Z,15.00
2022-09-26T04:46:45.672Z,14.23
2022-09-26T04:49:53.627Z,14.10
2022-09-26T04:53:02.259Z,13.98
2022-09-26T04:56:19.658Z,15.38
2022-09-26T04:59:21.417Z,14.02
2022-09-26T05:02:35.680Z,16.05
2022-09-26T05:05:46.037Z,17.10
2022-09-26T05:08:54.657Z,16.30
2022-09-26T05:12:03.460Z,15.77
2022-09-26T05:15:15.647Z,16.77
2022-09-26T05:18:25.541Z,16.52
2022-09-26T05:21:41.683Z,16.10
2022-09-26T05:24:43.434Z,14.85
2022-09-26T05:27:57.658Z,15.38
2022-09-26T05:31:06.310Z,15.65
2022-09-26T05:34:19.811Z,17.05
2022-09-26T05:37:34.669Z,16.07
2022-09-26T05:40:36.533Z,17.62
2022-09-26T05:43:58.642Z,16.90
2022-09-26T05:47:13.853Z,16.12
2022-09-26T05:50:22.700Z,17.37
2022-09-26T05:53:32.833Z,17.13
2022-09-26T05:56:47.661Z,15.82
2022-09-26T05:59:55.721Z,16.77
2022-09-26T06:03:12.715Z,17.27
2022-09-26T06:06:21.942Z,16.33
2022-09-26T06:09:30.783Z,15.27
2022-09-26T06:12:39.348Z,15.25
2022-09-26T06:15:47.781Z,16.70
2022-09-26T06:19:04.737Z,16.00
2022-09-26T06:22:15.120Z,17.33
2022-09-26T06:25:23.754Z,16.73
2022-09-26T06:28:38.819Z,18.12
2022-09-26T06:31:53.848Z,17.25
2022-09-26T06:34:55.868Z,17.45
2022-09-26T06:38:10.727Z,18.87
2022-09-26T06:41:21.028Z,16.93
2022-09-26T06:44:42.699Z,20.15
2022-09-26T06:47:51.347Z,27.40
2022-09-26T06:51:00.709Z,19.85
2022-09-26T06:54:09.330Z,19.08
2022-09-26T06:57:23.750Z,21.97
2022-09-26T07:00:38.918Z,18.17
2022-09-26T07:03:45.367Z,18.33
2022-09-26T07:07:00.811Z,18.37
2022-09-26T07:10:09.692Z,20.23
2022-09-26T07:13:17.729Z,17.53
2022-09-26T07:16:26.518Z,15.75
2022-09-26T07:19:37.788Z,17.23
2022-09-26T07:22:47.203Z,18.23
2022-09-26T07:26:01.797Z,19.10
2022-09-26T07:29:09.858Z,28.90
2022-09-26T07:32:18.673Z,19.23
2022-09-26T07:35:33.769Z,23.12
2022-09-26T07:38:41.763Z,19.67
2022-09-26T07:41:56.776Z,19.20
2022-09-26T07:45:29.885Z,20.77
2022-09-26T07:48:44.807Z,21.20
2022-09-26T07:51:53.757Z,20.85
2022-09-26T07:55:08.762Z,21.15
2022-09-26T07:58:10.622Z,19.90
2022-09-26T08:01:25.877Z,19.30
2022-09-26T08:04:34.399Z,19.20
2022-09-26T08:07:42.847Z,20.02
2022-09-26T08:10:51.405Z,19.45
2022-09-26T08:14:08.974Z,18.12
2022-09-26T08:17:17.833Z,15.83
2022-09-26T08:20:31.944Z,17.50
2022-09-26T08:23:41.841Z,16.60
2022-09-26T08:26:54.663Z,15.30
2022-09-26T08:30:02.908Z,18.45
2022-09-26T08:33:19.843Z,14.43
2022-09-26T08:36:27.819Z,15.73
2022-09-26T08:39:36.673Z,15.30
2022-09-26T08:43:01.796Z,16.05
2022-09-26T08:46:38.332Z,10.88
2022-09-26T08:50:07.754Z,10.43
2022-09-26T08:53:21.806Z,10.10
2022-09-26T08:56:35.669Z,9.20
2022-09-26T08:59:49.775Z,8.10
2022-09-26T09:03:07.970Z,8.25
2022-09-26T09:06:24.836Z,6.90
2022-09-26T09:09:32.863Z,7.97
2022-09-26T09:13:02.316Z,7.70
2022-09-26T09:16:33.877Z,7.35
2022-09-26T09:20:08.799Z,7.60
2022-09-26T09:23:30.726Z,7.33
2022-09-26T09:30:28.896Z,6.68
2022-09-26T09:33:49.800Z,6.20
2022-09-26T09:37:06.861Z,7.35
2022-09-26T09:40:27.462Z,5.70
2022-09-26T09:43:47.821Z,6.05
2022-09-26T09:47:12.428Z,5.90
2022-09-26T09:50:44.879Z,5.95
2022-09-26T09:54:16.857Z,6.05
2022-09-26T09:57:51.835Z,6.00
2022-09-26T10:01:31.559Z,4.25
2022-09-26T10:04:51.860Z,4.75
2022-09-26T10:08:07.824Z,4.70
2022-09-26T10:11:35.820Z,9.52
2022-09-26T10:14:52.866Z,13.77
2022-09-26T10:18:23.456Z,5.05
2022-09-26T10:21:51.867Z,16.67
2022-09-26T10:25:08.883Z,5.25
2022-09-26T10:28:32.833Z,6.30
2022-09-26T10:31:44.923Z,7.53
2022-09-26T10:35:20.110Z,5.45
2022-09-26T10:38:34.808Z,5.68
2022-09-26T10:41:47.905Z,4.82
2022-09-26T10:44:56.364Z,3.70
2022-09-26T10:48:12.814Z,3.80
2022-09-26T10:51:38.879Z,4.05
2022-09-26T10:54:47.664Z,5.82
2022-09-26T10:58:12.828Z,4.75
2022-09-26T11:01:25.822Z,4.00
2022-09-26T11:04:41.863Z,3.77
2022-09-26T11:07:58.894Z,16.23
2022-09-26T11:11:04.450Z,3.53
2022-09-26T11:14:30.962Z,3.05
2022-09-26T11:17:48.068Z,9.50
2022-09-26T11:21:28.315Z,5.40
2022-09-26T11:25:01.974Z,3.80
2022-09-26T11:28:12.636Z,3.97
2022-09-26T11:31:32.921Z,5.18
2022-09-26T11:34:47.972Z,3.20
2022-09-26T11:38:09.236Z,4.00
2022-09-26T11:41:39.901Z,3.40
2022-09-26T11:44:54.155Z,3.75
2022-09-26T11:48:27.962Z,3.47
2022-09-26T11:52:01.012Z,11.25
2022-09-26T11:55:18.500Z,4.20
2022-09-26T11:58:47.904Z,10.48
2022-09-26T12:02:16.969Z,3.90
2022-09-26T12:05:55.328Z,3.37
2022-09-26T12:09:29.903Z,5.55
2022-09-26T12:12:59.885Z,3.23
2022-09-26T12:16:31.584Z,8.40
2022-09-26T12:19:59.952Z,3.00
2022-09-26T12:23:22.963Z,4.70
2022-09-26T12:26:50.288Z,4.47
2022-09-26T12:30:10.937Z,12.30
2022-09-26T12:33:45.940Z,4.30
2022-09-26T12:37:33.932Z,5.80
2022-09-26T12:41:08.968Z,5.93
2022-09-26T12:44:55.972Z,4.43
2022-09-26T12:48:19.049Z,3.53
2022-09-26T12:51:48.997Z,5.75
2022-09-26T12:55:32.904Z,3.67
2022-09-26T12:58:54.805Z,3.37
2022-09-26T13:02:28.999Z,4.10
2022-09-26T13:05:49.486Z,4.63
2022-09-26T13:09:35.005Z,3.80
2022-09-26T13:13:00.993Z,3.37
2022-09-26T13:16:28.474Z,2.65
2022-09-26T13:19:55.943Z,3.20
2022-09-26T13:23:11.960Z,2.60
2022-09-26T13:26:31.366Z,3.33
2022-09-26T13:29:49.981Z,3.00
2022-09-26T13:33:25.098Z,4.47
2022-09-26T13:36:36.880Z,4.28
2022-09-26T13:39:59.330Z,3.30
2022-09-26T13:43:28.967Z,3.60
2022-09-26T13:47:02.214Z,6.50
2022-09-26T13:50:30.010Z,8.07
2022-09-26T13:53:54.013Z,5.07
2022-09-26T13:57:29.233Z,4.50
2022-09-26T14:00:47.080Z,3.22
2022-09-26T14:04:15.643Z,3.03
2022-09-26T14:07:57.997Z,3.55
2022-09-26T14:11:18.039Z,6.18
2022-09-26T14:14:42.532Z,3.67
2022-09-26T14:18:22.977Z,3.10
2022-09-26T14:21:44.046Z,3.53
2022-09-26T14:24:53.696Z,3.55
2022-09-26T14:28:36.099Z,3.30
2022-09-26T14:31:47.074Z,5.83
2022-09-26T14:34:59.343Z,3.83
2022-09-26T14:38:14.998Z,5.12
2022-09-26T14:41:32.404Z,4.05
2022-09-26T14:44:57.028Z,3.50
2022-09-26T14:48:23.999Z,3.43
2022-09-26T14:51:43.010Z,3.80
2022-09-26T14:54:53.050Z,3.40
2022-09-26T14:58:21.663Z,4.18
2022-09-26T15:01:43.122Z,4.40
2022-09-26T15:04:57.030Z,3.60
2022-09-26T15:08:22.792Z,3.35
2022-09-26T15:11:41.051Z,8.05
2022-09-26T15:14:57.270Z,9.80
2022-09-26T15:18:37.032Z,4.18
2022-09-26T15:21:49.053Z,6.00
2022-09-26T15:25:15.159Z,5.47
2022-09-26T15:28:31.058Z,4.32
2022-09-26T15:31:42.387Z,4.53
2022-09-26T15:34:58.109Z,7.35
2022-09-26T15:38:18.994Z,3.90
2022-09-26T15:41:21.167Z,17.60
2022-09-26T15:44:43.072Z,5.50
2022-09-26T15:47:59.055Z,5.43
2022-09-26T15:51:26.092Z,8.63
2022-09-26T15:54:34.920Z,5.20
2022-09-26T15:57:44.116Z,11.20
2022-09-26T16:00:53.491Z,4.95
2022-09-26T16:04:06.064Z,4.85
2022-09-26T16:07:28.285Z,5.03
2022-09-26T16:10:36.801Z,5.47
2022-09-26T16:13:50.086Z,8.73
2022-09-26T16:17:20.038Z,7.68
2022-09-26T16:20:31.606Z,4.60
2022-09-26T16:23:52.095Z,5.20
2022-09-26T16:27:01.435Z,8.97
2022-09-26T16:30:42.135Z,5.60
2022-09-26T16:33:57.125Z,4.10
2022-09-26T16:37:17.064Z,5.32
2022-09-26T16:40:26.117Z,5.75
2022-09-26T16:43:37.860Z,4.77
2022-09-26T16:47:01.063Z,6.60
2022-09-26T16:50:25.096Z,6.25
2022-09-26T16:53:26.903Z,5.12
2022-09-26T16:56:46.075Z,6.20
2022-09-26T16:59:48.308Z,5.07
2022-09-26T17:03:03.311Z,8.05
2022-09-26T17:06:11.674Z,7.53
2022-09-26T17:09:25.117Z,6.53
2022-09-26T17:12:33.939Z,6.28
2022-09-26T17:15:42.122Z,5.73
2022-09-26T17:18:57.109Z,6.65
2022-09-26T17:22:27.060Z,7.35
2022-09-26T17:25:28.912Z,6.40
2022-09-26T17:28:47.093Z,6.62
2022-09-26T17:31:57.314Z,7.47
2022-09-26T17:35:08.063Z,7.22
2022-09-26T17:38:16.915Z,5.82
2022-09-26T17:41:27.536Z,5.43
2022-09-26T17:44:49.212Z,6.20
2022-09-26T17:48:09.146Z,5.60
2022-09-26T17:51:11.414Z,5.97
2022-09-26T17:54:31.082Z,7.10
2022-09-26T17:57:41.869Z,8.10
2022-09-26T18:00:54.084Z,7.30
2022-09-26T18:04:13.260Z,6.50
2022-09-26T18:07:15.381Z,8.07
2022-09-26T18:10:36.194Z,8.63
2022-09-26T18:13:54.011Z,13.90
2022-09-26T18:17:02.194Z,8.90
2022-09-26T18:20:17.121Z,8.43
2022-09-26T18:23:36.268Z,8.48
2022-09-26T18:26:50.111Z,8.20
2022-09-26T18:29:58.964Z,7.53
2022-09-26T18:33:07.128Z,8.30
2022-09-26T18:36:15.772Z,8.37
2022-09-26T18:39:31.128Z,9.70
2022-09-26T18:42:33.159Z,9.70
2022-09-26T18:45:56.142Z,9.02
2022-09-26T18:49:11.171Z,8.25
2022-09-26T18:52:15.449Z,8.73
2022-09-26T18:55:32.132Z,9.35
2022-09-26T18:58:34.873Z,9.48
2022-09-26T19:01:50.295Z,9.40
2022-09-26T19:05:09.364Z,9.10
2022-09-26T19:08:33.140Z,9.50
2022-09-26T19:11:43.151Z,8.65
2022-09-26T19:14:58.152Z,9.48
2022-09-26T19:18:06.159Z,9.57
2022-09-26T19:21:35.235Z,9.40
2022-09-26T19:24:48.795Z,8.73
2022-09-26T19:27:57.187Z,9.15
2022-09-26T19:31:05.913Z,11.40
2022-09-26T19:34:19.207Z,9.57
2022-09-26T19:37:28.012Z,10.02
2022-09-26T19:40:48.354Z,9.53
2022-09-26T19:43:57.178Z,9.70
2022-09-26T19:47:22.770Z,10.38
2022-09-26T19:50:40.159Z,11.45
2022-09-26T19:53:42.532Z,11.38
2022-09-26T19:56:57.215Z,10.13
2022-09-26T19:59:59.094Z,10.32
2022-09-26T20:03:25.202Z,9.57
2022-09-26T20:06:33.803Z,8.85
2022-09-26T20:09:42.164Z,7.85
2022-09-26T20:12:51.149Z,8.40
2022-09-26T20:16:06.216Z,10.15
2022-09-26T20:19:19.043Z,9.73
2022-09-26T20:22:34.184Z,9.05
2022-09-26T20:25:49.167Z,9.70
2022-09-26T20:28:58.156Z,9.17
2022-09-26T20:32:06.719Z,8.55
2022-09-26T20:35:20.216Z,9.25
2022-09-26T20:38:43.199Z,9.52
2022-09-26T20:41:52.549Z,10.10
2022-09-26T20:45:02.203Z,10.03
2022-09-26T20:48:21.687Z,11.30
2022-09-26T20:51:38.197Z,9.23
2022-09-26T20:54:39.959Z,8.48
2022-09-26T20:57:54.248Z,9.18
2022-09-26T21:01:02.205Z,9.07
2022-09-26T21:04:15.057Z,8.57
2022-09-26T21:07:31.294Z,8.13
2022-09-26T21:10:40.200Z,6.90
2022-09-26T21:13:55.214Z,6.65
2022-09-26T21:17:04.029Z,7.37
2022-09-26T21:20:13.240Z,7.12
2022-09-26T21:23:28.212Z,7.90
2022-09-26T21:26:36.327Z,7.93
2022-09-26T21:29:52.184Z,7.75
2022-09-26T21:33:00.952Z,7.43
2022-09-26T21:36:09.203Z,7.28
2022-09-26T21:39:18.877Z,8.10
2022-09-26T21:42:33.191Z,7.50
2022-09-26T21:45:41.287Z,7.32
2022-09-26T21:49:03.272Z,7.47
2022-09-26T21:52:14.718Z,6.70
2022-09-26T21:55:36.228Z,7.35
2022-09-26T21:58:52.200Z,7.78
2022-09-26T22:02:00.277Z,7.45
2022-09-26T22:05:09.737Z,9.10
2022-09-26T22:08:24.223Z,8.43
2022-09-26T22:11:25.987Z,9.60
2022-09-26T22:14:40.266Z,8.18
2022-09-26T22:17:42.062Z,8.60
2022-09-26T22:21:01.301Z,8.13
2022-09-26T22:24:17.246Z,7.68
2022-09-26T22:27:19.241Z,8.13
2022-09-26T22:30:34.254Z,8.00
2022-09-26T22:33:49.316Z,7.75
2022-09-26T22:36:57.303Z,8.47
2022-09-26T22:40:06.610Z,7.78
2022-09-26T22:43:21.240Z,8.43
2022-09-26T22:46:29.324Z,7.68
2022-09-26T22:49:51.276Z,7.85
2022-09-26T22:52:53.119Z,8.70
2022-09-26T22:56:09.323Z,7.78
2022-09-26T22:59:11.237Z,8.07
2022-09-26T23:02:26.303Z,7.97
2022-09-26T23:05:28.108Z,7.87
2022-09-26T23:08:44.292Z,7.10
2022-09-26T23:11:52.862Z,8.20
2022-09-26T23:15:01.352Z,6.18
2022-09-26T23:18:17.304Z,7.37
2022-09-26T23:21:28.306Z,8.63
2022-09-26T23:24:43.374Z,7.60
2022-09-26T23:27:45.186Z,7.30
2022-09-26T23:31:00.348Z,7.57
2022-09-26T23:34:09.106Z,7.50
2022-09-26T23:37:17.346Z,8.20
2022-09-26T23:40:32.464Z,7.60
2022-09-26T23:43:41.694Z,8.20
2022-09-26T23:46:56.313Z,7.78
2022-09-26T23:50:05.423Z,7.78
2022-09-26T23:53:13.280Z,8.60
2022-09-26T23:56:22.150Z,8.50
2022-09-26T23:59:37.247Z,8.85
